createdAt,value
2022-10-17T00:01:16.358Z,12.90
2022-10-17T00:03:44.548Z,12.90
2022-10-17T00:06:15.204Z,12.80
2022-10-17T00:08:44.841Z,12.80
2022-10-17T00:11:17.484Z,12.90
2022-10-17T00:13:47.627Z,12.90
2022-10-17T00:16:15.981Z,12.90
2022-10-17T00:18:44.179Z,12.90
2022-10-17T00:21:17.187Z,12.90
2022-10-17T00:23:45.434Z,13.00
2022-10-17T00:26:14.134Z,13.00
2022-10-17T00:28:42.328Z,13.00
2022-10-17T00:31:13.558Z,13.00
2022-10-17T00:33:43.122Z,13.10
2022-10-17T00:36:13.754Z,13.10
2022-10-17T00:38:43.088Z,13.10
2022-10-17T00:41:12.996Z,13.10
2022-10-17T00:43:56.460Z,13.10
2022-10-17T00:46:27.766Z,13.10
2022-10-17T00:48:57.593Z,13.00
2022-10-17T00:51:32.193Z,13.00
2022-10-17T00:54:03.445Z,13.00
2022-10-17T00:56:32.762Z,13.00
2022-10-17T00:59:01.247Z,13.00
2022-10-17T01:01:31.046Z,13.00
2022-10-17T01:03:59.749Z,12.90
2022-10-17T01:06:28.130Z,12.90
2022-10-17T01:08:56.755Z,12.90
2022-10-17T01:11:35.178Z,12.90
2022-10-17T01:14:08.312Z,12.80
2022-10-17T01:16:48.862Z,12.80
2022-10-17T01:19:39.865Z,12.80
2022-10-17T01:22:12.628Z,12.80
2022-10-17T01:25:05.404Z,12.80
2022-10-17T01:27:53.099Z,12.80
2022-10-17T01:30:57.169Z,12.80
2022-10-17T01:33:40.805Z,12.80
2022-10-17T01:36:13.610Z,12.80
2022-10-17T01:38:48.353Z,12.80
2022-10-17T01:41:25.953Z,12.70
2022-10-17T01:44:00.692Z,12.70
2022-10-17T01:46:33.795Z,12.70
2022-10-17T01:49:05.578Z,12.70
2022-10-17T01:51:37.932Z,12.70
2022-10-17T01:54:12.345Z,12.70
2022-10-17T01:56:42.368Z,12.70
2022-10-17T01:59:15.028Z,12.70
2022-10-17T02:01:45.930Z,12.70
2022-10-17T02:04:16.433Z,12.70
2022-10-17T02:06:44.593Z,12.70
2022-10-17T02:09:20.405Z,12.60
2022-10-17T02:12:15.023Z,12.70
2022-10-17T02:14:54.837Z,12.60
2022-10-17T02:17:33.902Z,12.60
2022-10-17T02:20:11.433Z,12.60
2022-10-17T02:22:44.672Z,12.60
2022-10-17T02:25:20.399Z,12.60
2022-10-17T02:27:57.674Z,12.60
2022-10-17T02:30:35.152Z,12.60
2022-10-17T02:33:09.499Z,12.50
2022-10-17T02:35:44.632Z,12.50
2022-10-17T02:38:14.831Z,12.50
2022-10-17T02:40:46.807Z,12.50
2022-10-17T02:43:16.097Z,12.50
2022-10-17T02:45:44.429Z,12.50
2022-10-17T02:48:17.538Z,12.50
2022-10-17T02:50:54.386Z,12.60
2022-10-17T02:53:38.672Z,12.60
2022-10-17T02:56:15.021Z,12.60
2022-10-17T02:58:47.306Z,12.60
2022-10-17T03:01:16.035Z,12.60
2022-10-17T03:03:44.694Z,12.50
2022-10-17T03:06:14.272Z,12.50
2022-10-17T03:08:42.456Z,12.40
2022-10-17T03:11:10.679Z,12.40
2022-10-17T03:13:39.899Z,12.30
2022-10-17T03:16:08.974Z,12.30
2022-10-17T03:18:37.569Z,12.20
2022-10-17T03:21:06.421Z,12.20
2022-10-17T03:23:36.446Z,12.10
2022-10-17T03:26:06.978Z,12.10
2022-10-17T03:28:36.411Z,12.10
2022-10-17T03:31:09.320Z,12.00
2022-10-17T03:33:39.056Z,12.00
2022-10-17T03:36:08.369Z,12.00
2022-10-17T03:38:38.127Z,12.00
2022-10-17T03:41:07.901Z,11.90
2022-10-17T03:43:37.161Z,11.90
2022-10-17T03:46:05.404Z,11.90
2022-10-17T03:48:34.915Z,11.80
2022-10-17T03:51:05.481Z,11.90
2022-10-17T03:53:37.290Z,11.90
2022-10-17T03:56:15.277Z,11.90
2022-10-17T03:58:44.376Z,11.90
2022-10-17T04:01:15.244Z,11.90
2022-10-17T04:03:44.234Z,11.90
2022-10-17T04:06:13.859Z,11.90
2022-10-17T04:08:46.440Z,11.90
2022-10-17T04:11:23.008Z,11.80
2022-10-17T04:13:54.927Z,11.80
2022-10-17T04:16:23.988Z,11.90
2022-10-17T04:19:00.937Z,11.80
2022-10-17T04:21:33.048Z,11.90
2022-10-17T04:24:07.846Z,11.90
2022-10-17T04:26:51.990Z,11.90
2022-10-17T04:29:22.148Z,11.80
2022-10-17T04:31:52.944Z,11.80
2022-10-17T04:34:26.649Z,11.70
2022-10-17T04:36:54.890Z,11.70
2022-10-17T04:39:24.804Z,11.60
2022-10-17T04:41:53.681Z,11.60
2022-10-17T04:44:21.841Z,11.50
2022-10-17T04:46:53.001Z,11.40
2022-10-17T04:49:21.509Z,11.30
2022-10-17T04:51:53.818Z,11.20
2022-10-17T04:54:26.730Z,11.10
2022-10-17T04:57:01.240Z,11.10
2022-10-17T04:59:31.220Z,11.00
2022-10-17T05:02:19.642Z,10.90
2022-10-17T05:04:48.581Z,10.90
2022-10-17T05:07:17.653Z,10.80
2022-10-17T05:10:08.694Z,10.80
2022-10-17T05:12:37.089Z,10.80
2022-10-17T05:15:07.440Z,10.70
2022-10-17T05:17:36.190Z,10.70
2022-10-17T05:20:04.725Z,10.70
2022-10-17T05:22:38.261Z,10.70
2022-10-17T05:25:11.345Z,10.80
2022-10-17T05:27:39.606Z,10.70
2022-10-17T05:30:09.288Z,10.70
2022-10-17T05:32:39.041Z,10.80
2022-10-17T05:35:08.261Z,10.70
2022-10-17T05:37:37.846Z,10.70
2022-10-17T05:40:08.812Z,10.70
2022-10-17T05:45:07.485Z,10.70
2022-10-17T05:47:35.715Z,10.70
2022-10-17T05:50:06.902Z,10.70
2022-10-17T05:52:48.858Z,10.80
2022-10-17T05:55:17.924Z,10.80
2022-10-17T05:57:47.650Z,10.80
2022-10-17T06:00:19.440Z,10.80
2022-10-17T06:02:55.264Z,10.90
2022-10-17T06:05:24.680Z,11.00
2022-10-17T06:07:56.991Z,11.00
2022-10-17T06:10:28.421Z,11.10
2022-10-17T06:12:58.813Z,11.10
2022-10-17T06:15:27.532Z,11.20
2022-10-17T06:18:02.018Z,11.20
2022-10-17T06:20:30.210Z,11.30
2022-10-17T06:22:58.411Z,11.40
2022-10-17T06:25:44.758Z,11.40
2022-10-17T06:28:14.440Z,11.50
2022-10-17T06:30:42.860Z,11.60
2022-10-17T06:33:11.094Z,11.70
2022-10-17T06:35:39.284Z,11.80
2022-10-17T06:38:07.463Z,12.00
2022-10-17T06:40:37.726Z,12.10
2022-10-17T06:43:06.002Z,12.30
2022-10-17T06:45:53.937Z,12.40
2022-10-17T06:48:34.838Z,12.50
2022-10-17T06:51:24.502Z,12.60
2022-10-17T06:53:58.068Z,12.70
2022-10-17T06:56:30.482Z,12.80
2022-10-17T06:59:17.395Z,12.90
2022-10-17T07:01:54.814Z,13.00
2022-10-17T07:04:27.279Z,13.00
2022-10-17T07:06:55.727Z,13.10
2022-10-17T07:09:27.763Z,13.20
2022-10-17T07:11:59.194Z,13.20
2022-10-17T07:14:32.052Z,13.40
2022-10-17T07:17:02.527Z,13.50
2022-10-17T07:19:33.052Z,13.60
2022-10-17T07:22:02.140Z,13.70
2022-10-17T07:24:31.385Z,13.90
2022-10-17T07:27:08.304Z,14.00
2022-10-17T07:29:37.416Z,14.10
2022-10-17T07:32:13.599Z,14.30
2022-10-17T07:34:41.988Z,14.40
2022-10-17T07:37:11.864Z,14.50
2022-10-17T07:39:42.907Z,14.60
2022-10-17T07:42:11.776Z,14.80
2022-10-17T07:44:39.910Z,14.90
2022-10-17T07:47:08.174Z,15.00
2022-10-17T07:49:42.476Z,15.10
2022-10-17T07:52:11.174Z,15.20
2022-10-17T07:54:39.765Z,15.30
2022-10-17T07:57:08.076Z,15.50
2022-10-17T07:59:38.047Z,15.60
2022-10-17T08:02:08.084Z,15.80
2022-10-17T08:04:36.788Z,15.90
2022-10-17T08:07:19.673Z,16.10
2022-10-17T08:09:49.145Z,16.20
2022-10-17T08:12:17.683Z,16.40
2022-10-17T08:14:45.974Z,16.50
2022-10-17T08:17:14.110Z,16.60
2022-10-17T08:19:42.373Z,16.70
2022-10-17T08:22:12.000Z,16.90
2022-10-17T08:24:40.209Z,17.10
2022-10-17T08:27:11.495Z,17.20
2022-10-17T08:29:40.153Z,17.30
2022-10-17T08:32:09.940Z,17.40
2022-10-17T08:34:38.512Z,17.60
2022-10-17T08:37:06.720Z,17.70
2022-10-17T08:39:36.301Z,17.90
2022-10-17T08:42:18.565Z,18.10
2022-10-17T08:44:55.800Z,18.30
2022-10-17T08:47:29.754Z,18.50
2022-10-17T08:50:00.836Z,18.70
2022-10-17T08:52:38.669Z,18.90
2022-10-17T08:55:16.611Z,19.00
2022-10-17T08:57:45.497Z,19.20
2022-10-17T09:00:18.038Z,19.40
2022-10-17T09:02:58.523Z,19.50
2022-10-17T09:05:35.964Z,19.70
2022-10-17T09:08:14.857Z,20.00
2022-10-17T09:10:53.926Z,20.10
2022-10-17T09:13:33.807Z,20.30
2022-10-17T09:16:16.742Z,20.40
2022-10-17T09:18:52.288Z,20.60
2022-10-17T09:21:26.496Z,20.70
2022-10-17T09:24:09.010Z,20.90
2022-10-17T09:26:39.976Z,21.10
2022-10-17T09:29:21.068Z,21.30
2022-10-17T09:31:58.582Z,21.50
2022-10-17T09:34:29.208Z,21.70
2022-10-17T09:37:00.420Z,21.90
2022-10-17T09:39:31.864Z,22.00
2022-10-17T09:42:03.232Z,22.20
2022-10-17T09:44:33.261Z,22.40
2022-10-17T09:47:13.621Z,22.50
2022-10-17T09:49:43.773Z,22.70
2022-10-17T09:52:15.803Z,22.90
2022-10-17T09:54:46.796Z,23.00
2022-10-17T09:57:18.147Z,23.20
2022-10-17T09:59:48.388Z,23.30
2022-10-17T10:02:20.807Z,23.50
2022-10-17T10:05:06.383Z,23.60
2022-10-17T10:07:37.743Z,23.90
2022-10-17T10:10:08.195Z,24.10
2022-10-17T10:12:40.219Z,24.20
2022-10-17T10:15:34.444Z,24.40
2022-10-17T10:18:02.900Z,24.40
2022-10-17T10:20:34.929Z,24.60
2022-10-17T10:23:18.400Z,24.70
2022-10-17T10:25:58.062Z,24.90
2022-10-17T10:28:30.870Z,25.00
2022-10-17T10:31:01.622Z,25.00
2022-10-17T10:33:31.768Z,25.00
2022-10-17T10:36:03.268Z,24.90
2022-10-17T10:38:33.474Z,24.90
2022-10-17T10:41:08.015Z,24.80
2022-10-17T10:43:42.373Z,24.80
2022-10-17T10:46:19.292Z,24.90
2022-10-17T10:48:58.462Z,25.00
2022-10-17T10:51:33.147Z,25.20
2022-10-17T10:54:06.911Z,25.30
2022-10-17T10:56:39.143Z,25.30
2022-10-17T10:59:18.993Z,25.40
2022-10-17T11:01:53.102Z,25.50
2022-10-17T11:04:33.687Z,25.60
2022-10-17T11:07:06.671Z,25.70
2022-10-17T11:09:46.201Z,25.70
2022-10-17T11:12:21.789Z,25.70
2022-10-17T11:14:57.201Z,25.80
2022-10-17T11:17:34.273Z,25.80
2022-10-17T11:20:15.065Z,25.90
2022-10-17T11:22:46.490Z,25.90
2022-10-17T11:25:30.052Z,25.90
2022-10-17T11:28:02.288Z,25.90
2022-10-17T11:30:46.138Z,25.90
2022-10-17T11:33:19.995Z,25.80
2022-10-17T11:35:51.475Z,25.90
2022-10-17T11:38:23.132Z,25.80
2022-10-17T11:40:52.906Z,25.70
2022-10-17T11:43:27.005Z,25.60
2022-10-17T11:45:59.422Z,25.60
2022-10-17T11:48:32.071Z,25.70
2022-10-17T11:54:03.481Z,25.90
2022-10-17T11:56:42.666Z,26.00
2022-10-17T11:59:32.237Z,26.00
2022-10-17T12:02:10.245Z,26.00
2022-10-17T12:04:50.784Z,26.00
2022-10-17T12:07:26.752Z,26.10
2022-10-17T12:10:02.525Z,26.10
2022-10-17T12:12:33.149Z,26.10
2022-10-17T12:15:30.431Z,26.10
2022-10-17T12:18:03.292Z,26.10
2022-10-17T12:20:36.639Z,26.10
2022-10-17T12:23:28.410Z,26.20
2022-10-17T12:26:01.491Z,26.20
2022-10-17T12:28:33.876Z,26.20
2022-10-17T12:31:05.738Z,26.20
2022-10-17T12:33:38.402Z,26.20
2022-10-17T12:36:49.155Z,26.20
2022-10-17T12:39:44.214Z,26.30
2022-10-17T12:42:47.825Z,26.30
2022-10-17T12:45:50.195Z,26.40
2022-10-17T12:48:55.844Z,26.30
2022-10-17T12:51:40.715Z,26.20
2022-10-17T12:54:13.430Z,26.10
2022-10-17T12:56:43.363Z,26.10
2022-10-17T12:59:16.910Z,26.00
2022-10-17T13:01:48.134Z,26.10
2022-10-17T13:04:17.273Z,26.10
2022-10-17T13:06:48.939Z,26.20
2022-10-17T13:09:24.073Z,26.20
2022-10-17T13:11:52.981Z,26.30
2022-10-17T13:14:23.445Z,26.20
2022-10-17T13:16:56.809Z,26.20
2022-10-17T13:19:27.133Z,26.40
2022-10-17T13:22:05.994Z,26.60
2022-10-17T13:24:37.018Z,26.70
2022-10-17T13:27:06.642Z,26.80
2022-10-17T13:29:35.603Z,27.00
2022-10-17T13:32:06.175Z,27.10
2022-10-17T13:34:35.545Z,27.10
2022-10-17T13:37:08.451Z,27.10
2022-10-17T13:40:00.281Z,27.00
2022-10-17T13:42:31.898Z,27.00
2022-10-17T13:45:00.858Z,27.00
2022-10-17T13:47:31.520Z,27.00
2022-10-17T13:50:00.321Z,26.90
2022-10-17T13:52:31.397Z,26.80
2022-10-17T13:55:11.741Z,26.90
2022-10-17T13:57:41.513Z,26.80
2022-10-17T14:00:18.656Z,26.80
2022-10-17T14:02:46.841Z,26.80
2022-10-17T14:05:18.980Z,26.80
2022-10-17T14:10:43.885Z,27.00
2022-10-17T14:13:22.539Z,27.10
2022-10-17T14:15:51.407Z,27.10
2022-10-17T14:18:22.943Z,27.00
2022-10-17T14:23:45.141Z,26.90
2022-10-17T14:26:16.030Z,26.70
2022-10-17T14:28:46.587Z,26.40
2022-10-17T14:31:29.788Z,26.20
2022-10-17T14:33:58.360Z,26.00
2022-10-17T14:36:34.978Z,25.90
2022-10-17T14:39:09.547Z,25.80
2022-10-17T14:41:44.481Z,25.80
2022-10-17T14:44:21.648Z,25.60
2022-10-17T14:46:54.301Z,25.60
2022-10-17T14:49:37.642Z,25.50
2022-10-17T14:57:18.118Z,25.30
2022-10-17T15:00:14.835Z,25.20
2022-10-17T15:02:43.516Z,25.10
2022-10-17T15:05:13.474Z,25.00
2022-10-17T15:08:32.794Z,24.90
2022-10-17T15:11:01.077Z,24.90
2022-10-17T15:13:34.608Z,24.80
2022-10-17T15:16:15.023Z,24.70
2022-10-17T15:18:44.282Z,24.70
2022-10-17T15:21:26.266Z,24.60
2022-10-17T15:24:04.448Z,24.60
2022-10-17T15:26:34.810Z,24.50
2022-10-17T15:29:05.047Z,24.40
2022-10-17T15:31:33.568Z,24.40
2022-10-17T15:34:01.714Z,24.30
2022-10-17T15:36:31.890Z,24.20
2022-10-17T15:39:02.248Z,24.10
2022-10-17T15:41:32.559Z,24.00
2022-10-17T15:44:00.991Z,24.00
2022-10-17T15:46:33.633Z,23.80
2022-10-17T15:49:04.820Z,23.70
2022-10-17T15:51:33.095Z,23.60
2022-10-17T15:54:01.924Z,23.40
2022-10-17T15:56:35.802Z,23.30
2022-10-17T15:59:05.703Z,23.10
2022-10-17T16:01:36.022Z,23.00
2022-10-17T16:04:04.198Z,22.80
2022-10-17T16:06:32.386Z,22.60
2022-10-17T16:09:00.605Z,22.50
2022-10-17T16:11:31.945Z,22.40
2022-10-17T16:14:02.978Z,22.20
2022-10-17T16:16:31.461Z,22.10
2022-10-17T16:19:01.429Z,22.00
2022-10-17T16:24:00.559Z,21.60
2022-10-17T16:26:29.107Z,21.50
2022-10-17T16:28:58.105Z,21.40
2022-10-17T16:31:31.077Z,21.30
2022-10-17T16:34:02.174Z,21.20
2022-10-17T16:36:30.624Z,21.00
2022-10-17T16:38:58.807Z,20.90
2022-10-17T16:41:28.948Z,20.70
2022-10-17T16:43:58.607Z,20.50
2022-10-17T16:46:28.197Z,20.40
2022-10-17T16:48:56.958Z,20.20
2022-10-17T16:51:26.741Z,20.00
2022-10-17T16:53:57.051Z,19.80
2022-10-17T16:56:29.689Z,19.70
2022-10-17T16:58:57.928Z,19.50
2022-10-17T17:01:27.200Z,19.40
2022-10-17T17:03:56.201Z,19.20
2022-10-17T17:06:27.804Z,19.10
2022-10-17T17:08:56.983Z,19.00
2022-10-17T17:11:27.889Z,18.90
2022-10-17T17:13:57.368Z,18.80
2022-10-17T17:16:27.308Z,18.70
2022-10-17T17:18:57.174Z,18.70
2022-10-17T17:21:27.812Z,18.60
2022-10-17T17:23:58.268Z,18.60
2022-10-17T17:26:28.028Z,18.50
2022-10-17T17:28:58.112Z,18.40
2022-10-17T17:31:28.868Z,18.20
2022-10-17T17:33:57.544Z,18.10
2022-10-17T17:36:28.992Z,18.00
2022-10-17T17:38:59.005Z,17.90
2022-10-17T17:41:27.715Z,17.70
2022-10-17T17:43:56.914Z,17.70
2022-10-17T17:46:26.201Z,17.60
2022-10-17T17:48:55.991Z,17.50
2022-10-17T17:51:29.068Z,17.50
2022-10-17T17:53:58.925Z,17.40
2022-10-17T17:56:29.240Z,17.40
2022-10-17T17:58:59.642Z,17.30
2022-10-17T18:01:29.189Z,17.30
2022-10-17T18:03:59.794Z,17.20
2022-10-17T18:06:28.922Z,17.10
2022-10-17T18:09:00.087Z,17.10
2022-10-17T18:11:29.306Z,17.10
2022-10-17T18:13:58.982Z,17.00
2022-10-17T18:16:29.087Z,17.00
2022-10-17T18:18:59.494Z,16.80
2022-10-17T18:21:30.769Z,16.80
2022-10-17T18:24:00.667Z,16.70
2022-10-17T18:26:29.125Z,16.60
2022-10-17T18:28:57.627Z,16.50
2022-10-17T18:31:28.482Z,16.40
2022-10-17T18:33:58.129Z,16.30
2022-10-17T18:36:27.292Z,16.20
2022-10-17T18:38:56.439Z,16.30
2022-10-17T18:41:27.358Z,16.20
2022-10-17T18:43:57.078Z,16.20
2022-10-17T18:46:27.451Z,16.20
2022-10-17T18:48:56.335Z,16.10
2022-10-17T18:51:26.082Z,16.00
2022-10-17T18:53:58.588Z,16.00
2022-10-17T18:56:28.271Z,16.00
2022-10-17T18:58:56.918Z,15.90
2022-10-17T19:01:26.734Z,15.90
2022-10-17T19:03:57.172Z,15.90
2022-10-17T19:06:27.382Z,15.80
2022-10-17T19:08:55.833Z,15.80
2022-10-17T19:11:25.624Z,15.70
2022-10-17T19:13:56.838Z,15.70
2022-10-17T19:16:31.564Z,15.70
2022-10-17T19:19:02.296Z,15.70
2022-10-17T19:21:30.472Z,15.70
2022-10-17T19:24:01.573Z,15.60
2022-10-17T19:26:32.934Z,15.60
2022-10-17T19:29:05.791Z,15.50
2022-10-17T19:32:06.861Z,15.50
2022-10-17T19:35:02.007Z,15.50
2022-10-17T19:37:31.785Z,15.40
2022-10-17T19:40:03.772Z,15.40
2022-10-17T19:42:32.523Z,15.40
2022-10-17T19:45:02.942Z,15.30
2022-10-17T19:47:31.113Z,15.30
2022-10-17T19:49:59.292Z,15.30
2022-10-17T19:52:27.681Z,15.20
2022-10-17T19:54:56.023Z,15.20
2022-10-17T19:57:25.672Z,15.10
2022-10-17T19:59:55.961Z,15.00
2022-10-17T20:02:25.814Z,15.00
2022-10-17T20:05:13.802Z,14.90
2022-10-17T20:07:42.530Z,14.90
2022-10-17T20:10:10.948Z,14.80
2022-10-17T20:12:39.100Z,14.80
2022-10-17T20:15:08.051Z,14.80
2022-10-17T20:17:37.649Z,14.80
2022-10-17T20:20:08.779Z,14.80
2022-10-17T20:22:37.166Z,14.70
2022-10-17T20:25:05.940Z,14.70
2022-10-17T20:27:34.266Z,14.60
2022-10-17T20:30:03.832Z,14.50
2022-10-17T20:32:39.531Z,14.60
2022-10-17T20:35:10.817Z,14.60
2022-10-17T20:37:42.586Z,14.70
2022-10-17T20:43:00.296Z,14.60
2022-10-17T20:45:43.633Z,14.50
2022-10-17T20:48:17.275Z,14.50
2022-10-17T20:50:46.824Z,14.50
2022-10-17T20:53:35.904Z,14.40
2022-10-17T20:56:04.633Z,14.40
2022-10-17T20:58:32.822Z,14.30
2022-10-17T21:01:06.417Z,14.30
2022-10-17T21:03:37.799Z,14.20
2022-10-17T21:06:11.283Z,14.20
2022-10-17T21:09:05.840Z,14.20
2022-10-17T21:11:34.570Z,14.20
2022-10-17T21:14:04.880Z,14.20
2022-10-17T21:16:37.876Z,14.20
2022-10-17T21:19:06.794Z,14.20
2022-10-17T21:21:38.604Z,14.20
2022-10-17T21:24:11.236Z,14.10
2022-10-17T21:26:40.526Z,14.10
2022-10-17T21:29:10.436Z,14.00
2022-10-17T21:31:41.062Z,13.90
2022-10-17T21:34:11.630Z,13.80
2022-10-17T21:36:42.213Z,13.80
2022-10-17T21:39:12.057Z,13.70
2022-10-17T21:41:40.561Z,13.80
2022-10-17T21:44:13.040Z,13.80
2022-10-17T21:46:41.813Z,13.70
2022-10-17T21:49:12.115Z,13.70
2022-10-17T21:51:42.094Z,13.70
2022-10-17T21:54:10.657Z,13.70
2022-10-17T21:56:38.967Z,13.70
2022-10-17T21:59:07.851Z,13.60
2022-10-17T22:01:38.296Z,13.60
2022-10-17T22:04:08.590Z,13.50
2022-10-17T22:06:40.333Z,13.50
2022-10-17T22:09:14.452Z,13.50
2022-10-17T22:11:45.183Z,13.40
2022-10-17T22:14:16.045Z,13.30
2022-10-17T22:16:46.295Z,13.30
2022-10-17T22:19:16.596Z,13.30
2022-10-17T22:21:45.218Z,13.30
2022-10-17T22:24:17.060Z,13.30
2022-10-17T22:26:46.046Z,13.30
2022-10-17T22:29:14.932Z,13.30
2022-10-17T22:31:43.515Z,13.20
2022-10-17T22:34:14.415Z,13.20
2022-10-17T22:36:43.433Z,13.20
2022-10-17T22:39:12.175Z,13.10
2022-10-17T22:41:41.852Z,13.10
2022-10-17T22:44:10.287Z,13.10
2022-10-17T22:46:38.783Z,13.10
2022-10-17T22:49:07.104Z,13.10
2022-10-17T22:51:35.405Z,13.00
2022-10-17T22:54:03.696Z,13.00
2022-10-17T22:56:32.066Z,13.00
2022-10-17T22:59:01.793Z,13.00
2022-10-17T23:01:30.206Z,13.00
2022-10-17T23:03:58.546Z,12.90
2022-10-17T23:06:26.860Z,12.90
2022-10-17T23:08:55.422Z,12.90
2022-10-17T23:11:23.811Z,12.80
2022-10-17T23:13:52.157Z,12.80
2022-10-17T23:16:21.955Z,12.80
2022-10-17T23:18:50.306Z,12.80
2022-10-17T23:21:18.554Z,12.80
2022-10-17T23:23:46.988Z,12.80
2022-10-17T23:26:16.118Z,12.70
2022-10-17T23:28:44.653Z,12.70
2022-10-17T23:31:17.653Z,12.80
2022-10-17T23:33:48.771Z,12.70
2022-10-17T23:36:18.807Z,12.70
2022-10-17T23:38:48.158Z,12.70
2022-10-17T23:41:16.883Z,12.70
2022-10-17T23:43:45.901Z,12.70
2022-10-17T23:46:14.586Z,12.70
2022-10-17T23:48:43.150Z,12.70
2022-10-17T23:51:13.274Z,12.60
2022-10-17T23:53:42.085Z,12.60
2022-10-17T23:56:11.417Z,12.60
2022-10-17T23:58:40.270Z,12.50
